Pelahatchie, Mississippi
Current Conditions -  °F | °C
As of 3:54 PM on Monday 22 Dec 2014 (Local Time) from KJAN Reporting Station
Overcast Overcast  
Wind Chill: 63°   Ceiling: 900
Heat Index: 63°   Visibility: 8mi
Dew Point: 60°   Wind: 8mph
Humidity: 90%   Direction: 150°SSE
Pressure: 29.66"   Gusts: NA
Location:  32.31°N, 89.8°W
Report Text: KJAN 222154Z 15007KT 8SM OVC009 17/16 A2966 RMK AO2 CIG 005V013 SLP042 T01720156
Loading
Personal Weather Stations






























Interactive Weather Map New forecast layout! Learn more

10-Day Weather Forecast

Advertisements
Track Severe Weather on mobile